<?xml version="1.0" encoding="UTF-8" standalone="no" ?>
<gpx xmlns="http://www.topografix.com/GPX/1/1" xmlns:xsi="http://www.w3.org/2001/XMLSchema-instance" xsi:schemaLocation="http://www.topografix.com/GPX/1/1 http://www.topografix.com/GPX/1/1/gpx.xsd" version="1.1" creator="VisuGPX - https://www.visugpx.com">
  <metadata>
    <name>VacancesDricouZoe</name>
  </metadata>
  <trk>
    <name><![CDATA[Journal actif: 2021-07-01 13:44]]></name>
    <trkseg>
      <trkpt lat="44.64301" lon="-1.25467">
        <ele>1.1</ele>
        <time>2021-07-01T15:44:22Z</time>
      </trkpt>
      <trkpt lat="44.64371" lon="-1.25449">
        <ele>-0.34</ele>
        <time>2021-07-01T15:44:30Z</time>
      </trkpt>
      <trkpt lat="44.64371" lon="-1.25449">
        <ele>-0.82</ele>
        <time>2021-07-01T15:44:31Z</time>
      </trkpt>
      <trkpt lat="44.64378" lon="-1.25445">
        <ele>-1.3</ele>
        <time>2021-07-01T15:44:32Z</time>
      </trkpt>
      <trkpt lat="44.64385" lon="-1.25441">
        <ele>-1.3</ele>
        <time>2021-07-01T15:44:33Z</time>
      </trkpt>
      <trkpt lat="44.64391" lon="-1.25436">
        <ele>-1.3</ele>
        <time>2021-07-01T15:44:34Z</time>
      </trkpt>
      <trkpt lat="44.64403" lon="-1.25419">
        <ele>-1.79</ele>
        <time>2021-07-01T15:44:35Z</time>
      </trkpt>
      <trkpt lat="44.64403" lon="-1.25419">
        <ele>-1.79</ele>
        <time>2021-07-01T15:44:36Z</time>
      </trkpt>
      <trkpt lat="44.64408" lon="-1.25409">
        <ele>-1.79</ele>
        <time>2021-07-01T15:44:37Z</time>
      </trkpt>
      <trkpt lat="44.64414" lon="-1.254">
        <ele>-1.79</ele>
        <time>2021-07-01T15:44:38Z</time>
      </trkpt>
      <trkpt lat="44.64419" lon="-1.25391">
        <ele>-1.79</ele>
        <time>2021-07-01T15:44:39Z</time>
      </trkpt>
      <trkpt lat="44.64424" lon="-1.25382">
        <ele>-1.3</ele>
        <time>2021-07-01T15:44:40Z</time>
      </trkpt>
      <trkpt lat="44.6443" lon="-1.25372">
        <ele>-1.3</ele>
        <time>2021-07-01T15:44:41Z</time>
      </trkpt>
      <trkpt lat="44.64436" lon="-1.25367">
        <ele>-1.3</ele>
        <time>2021-07-01T15:44:42Z</time>
      </trkpt>
      <trkpt lat="44.64444" lon="-1.25363">
        <ele>-0.82</ele>
        <time>2021-07-01T15:44:43Z</time>
      </trkpt>
      <trkpt lat="44.64453" lon="-1.2536">
        <ele>-0.82</ele>
        <time>2021-07-01T15:44:44Z</time>
      </trkpt>
      <trkpt lat="44.6446" lon="-1.25359">
        <ele>-1.3</ele>
        <time>2021-07-01T15:44:45Z</time>
      </trkpt>
      <trkpt lat="44.64478" lon="-1.25365">
        <ele>-1.79</ele>
        <time>2021-07-01T15:44:46Z</time>
      </trkpt>
      <trkpt lat="44.64478" lon="-1.25365">
        <ele>-1.3</ele>
        <time>2021-07-01T15:44:47Z</time>
      </trkpt>
      <trkpt lat="44.64486" lon="-1.25367">
        <ele>-1.79</ele>
        <time>2021-07-01T15:44:48Z</time>
      </trkpt>
      <trkpt lat="44.64515" lon="-1.25379">
        <ele>0.14</ele>
        <time>2021-07-01T15:44:52Z</time>
      </trkpt>
      <trkpt lat="44.64522" lon="-1.25381">
        <ele>1.1</ele>
        <time>2021-07-01T15:44:53Z</time>
      </trkpt>
      <trkpt lat="44.64527" lon="-1.25384">
        <ele>1.1</ele>
        <time>2021-07-01T15:44:54Z</time>
      </trkpt>
      <trkpt lat="44.64536" lon="-1.25388">
        <ele>1.1</ele>
        <time>2021-07-01T15:44:55Z</time>
      </trkpt>
      <trkpt lat="44.64536" lon="-1.25388">
        <ele>1.1</ele>
        <time>2021-07-01T15:44:56Z</time>
      </trkpt>
      <trkpt lat="44.64543" lon="-1.25377">
        <ele>1.1</ele>
        <time>2021-07-01T15:44:57Z</time>
      </trkpt>
      <trkpt lat="44.64541" lon="-1.25377">
        <ele>0.62</ele>
        <time>2021-07-01T15:44:58Z</time>
      </trkpt>
      <trkpt lat="44.64553" lon="-1.25367">
        <ele>0.14</ele>
        <time>2021-07-01T15:44:59Z</time>
      </trkpt>
      <trkpt lat="44.64555" lon="-1.25358">
        <ele>0.14</ele>
        <time>2021-07-01T15:45:00Z</time>
      </trkpt>
      <trkpt lat="44.64575" lon="-1.25231">
        <ele>-5.15</ele>
        <time>2021-07-01T15:45:13Z</time>
      </trkpt>
      <trkpt lat="44.6458" lon="-1.25196">
        <ele>-6.59</ele>
        <time>2021-07-01T15:45:21Z</time>
      </trkpt>
      <trkpt lat="44.64583" lon="-1.25173">
        <ele>-6.59</ele>
        <time>2021-07-01T15:45:25Z</time>
      </trkpt>
      <trkpt lat="44.64588" lon="-1.25086">
        <ele>-5.15</ele>
        <time>2021-07-01T15:45:35Z</time>
      </trkpt>
      <trkpt lat="44.64592" lon="-1.25011">
        <ele>-2.75</ele>
        <time>2021-07-01T15:45:46Z</time>
      </trkpt>
      <trkpt lat="44.64592" lon="-1.25011">
        <ele>-2.75</ele>
        <time>2021-07-01T15:45:48Z</time>
      </trkpt>
      <trkpt lat="44.64593" lon="-1.25006">
        <ele>-2.27</ele>
        <time>2021-07-01T15:45:49Z</time>
      </trkpt>
      <trkpt lat="44.64593" lon="-1.25006">
        <ele>-2.27</ele>
        <time>2021-07-01T15:45:50Z</time>
      </trkpt>
      <trkpt lat="44.64595" lon="-1.25005">
        <ele>-2.27</ele>
        <time>2021-07-01T15:45:51Z</time>
      </trkpt>
      <trkpt lat="44.64598" lon="-1.25004">
        <ele>-1.79</ele>
        <time>2021-07-01T15:45:52Z</time>
      </trkpt>
      <trkpt lat="44.64602" lon="-1.25002">
        <ele>-1.79</ele>
        <time>2021-07-01T15:45:53Z</time>
      </trkpt>
      <trkpt lat="44.64606" lon="-1.25001">
        <ele>-1.79</ele>
        <time>2021-07-01T15:45:54Z</time>
      </trkpt>
      <trkpt lat="44.6461" lon="-1.24999">
        <ele>-1.79</ele>
        <time>2021-07-01T15:45:55Z</time>
      </trkpt>
      <trkpt lat="44.64678" lon="-1.24969">
        <ele>-3.23</ele>
        <time>2021-07-01T15:46:07Z</time>
      </trkpt>
      <trkpt lat="44.64698" lon="-1.24949">
        <ele>-4.19</ele>
        <time>2021-07-01T15:46:14Z</time>
      </trkpt>
      <trkpt lat="44.64699" lon="-1.24943">
        <ele>-4.19</ele>
        <time>2021-07-01T15:46:15Z</time>
      </trkpt>
      <trkpt lat="44.647" lon="-1.24897">
        <ele>-1.79</ele>
        <time>2021-07-01T15:46:25Z</time>
      </trkpt>
      <trkpt lat="44.647" lon="-1.24897">
        <ele>-1.79</ele>
        <time>2021-07-01T15:46:26Z</time>
      </trkpt>
      <trkpt lat="44.647" lon="-1.24897">
        <ele>-1.79</ele>
        <time>2021-07-01T15:46:27Z</time>
      </trkpt>
      <trkpt lat="44.647" lon="-1.24897">
        <ele>-1.79</ele>
        <time>2021-07-01T15:46:28Z</time>
      </trkpt>
      <trkpt lat="44.64701" lon="-1.24896">
        <ele>-1.79</ele>
        <time>2021-07-01T15:46:29Z</time>
      </trkpt>
      <trkpt lat="44.64704" lon="-1.24895">
        <ele>-1.79</ele>
        <time>2021-07-01T15:46:30Z</time>
      </trkpt>
      <trkpt lat="44.64706" lon="-1.24895">
        <ele>-1.3</ele>
        <time>2021-07-01T15:46:31Z</time>
      </trkpt>
      <trkpt lat="44.64741" lon="-1.24891">
        <ele>-2.27</ele>
        <time>2021-07-01T15:46:44Z</time>
      </trkpt>
      <trkpt lat="44.64808" lon="-1.24888">
        <ele>-2.75</ele>
        <time>2021-07-01T15:47:01Z</time>
      </trkpt>
      <trkpt lat="44.64813" lon="-1.24888">
        <ele>-3.23</ele>
        <time>2021-07-01T15:47:05Z</time>
      </trkpt>
      <trkpt lat="44.64816" lon="-1.24888">
        <ele>-3.23</ele>
        <time>2021-07-01T15:47:06Z</time>
      </trkpt>
      <trkpt lat="44.64817" lon="-1.24892">
        <ele>-3.23</ele>
        <time>2021-07-01T15:47:07Z</time>
      </trkpt>
      <trkpt lat="44.64816" lon="-1.24895">
        <ele>-3.23</ele>
        <time>2021-07-01T15:47:08Z</time>
      </trkpt>
      <trkpt lat="44.64815" lon="-1.24899">
        <ele>-2.75</ele>
        <time>2021-07-01T15:47:09Z</time>
      </trkpt>
      <trkpt lat="44.64814" lon="-1.24904">
        <ele>-2.75</ele>
        <time>2021-07-01T15:47:10Z</time>
      </trkpt>
      <trkpt lat="44.64813" lon="-1.24908">
        <ele>-2.75</ele>
        <time>2021-07-01T15:47:11Z</time>
      </trkpt>
      <trkpt lat="44.64795" lon="-1.24991">
        <ele>-4.67</ele>
        <time>2021-07-01T15:47:25Z</time>
      </trkpt>
      <trkpt lat="44.64773" lon="-1.2509">
        <ele>-4.19</ele>
        <time>2021-07-01T15:47:41Z</time>
      </trkpt>
      <trkpt lat="44.64767" lon="-1.25095">
        <ele>-4.19</ele>
        <time>2021-07-01T15:47:42Z</time>
      </trkpt>
      <trkpt lat="44.64763" lon="-1.25099">
        <ele>-4.19</ele>
        <time>2021-07-01T15:47:43Z</time>
      </trkpt>
      <trkpt lat="44.64758" lon="-1.25102">
        <ele>-4.19</ele>
        <time>2021-07-01T15:47:44Z</time>
      </trkpt>
      <trkpt lat="44.64754" lon="-1.25106">
        <ele>-4.67</ele>
        <time>2021-07-01T15:47:45Z</time>
      </trkpt>
      <trkpt lat="44.64696" lon="-1.25152">
        <ele>-6.59</ele>
        <time>2021-07-01T15:47:56Z</time>
      </trkpt>
      <trkpt lat="44.64683" lon="-1.25162">
        <ele>-7.55</ele>
        <time>2021-07-01T15:47:59Z</time>
      </trkpt>
      <trkpt lat="44.64678" lon="-1.25164">
        <ele>-8.03</ele>
        <time>2021-07-01T15:48:00Z</time>
      </trkpt>
      <trkpt lat="44.64602" lon="-1.25181">
        <ele>-9.48</ele>
        <time>2021-07-01T15:48:13Z</time>
      </trkpt>
      <trkpt lat="44.64561" lon="-1.25188">
        <ele>-9</ele>
        <time>2021-07-01T15:48:22Z</time>
      </trkpt>
      <trkpt lat="44.64489" lon="-1.25189">
        <ele>-5.15</ele>
        <time>2021-07-01T15:48:34Z</time>
      </trkpt>
      <trkpt lat="44.64457" lon="-1.25168">
        <ele>-5.63</ele>
        <time>2021-07-01T15:48:42Z</time>
      </trkpt>
      <trkpt lat="44.64441" lon="-1.25153">
        <ele>-7.55</ele>
        <time>2021-07-01T15:48:45Z</time>
      </trkpt>
      <trkpt lat="44.64423" lon="-1.25131">
        <ele>-9.48</ele>
        <time>2021-07-01T15:48:48Z</time>
      </trkpt>
      <trkpt lat="44.64421" lon="-1.25124">
        <ele>-9.48</ele>
        <time>2021-07-01T15:48:49Z</time>
      </trkpt>
      <trkpt lat="44.64419" lon="-1.25117">
        <ele>-9.48</ele>
        <time>2021-07-01T15:48:50Z</time>
      </trkpt>
      <trkpt lat="44.64394" lon="-1.25028">
        <ele>-6.11</ele>
        <time>2021-07-01T15:49:03Z</time>
      </trkpt>
      <trkpt lat="44.64378" lon="-1.24923">
        <ele>-2.27</ele>
        <time>2021-07-01T15:49:16Z</time>
      </trkpt>
      <trkpt lat="44.64374" lon="-1.24881">
        <ele>-0.34</ele>
        <time>2021-07-01T15:49:25Z</time>
      </trkpt>
      <trkpt lat="44.64374" lon="-1.24876">
        <ele>-0.34</ele>
        <time>2021-07-01T15:49:26Z</time>
      </trkpt>
      <trkpt lat="44.64374" lon="-1.24873">
        <ele>-0.82</ele>
        <time>2021-07-01T15:49:27Z</time>
      </trkpt>
      <trkpt lat="44.64377" lon="-1.2488">
        <ele>-0.82</ele>
        <time>2021-07-01T15:49:28Z</time>
      </trkpt>
      <trkpt lat="44.64381" lon="-1.2488">
        <ele>-0.82</ele>
        <time>2021-07-01T15:49:29Z</time>
      </trkpt>
      <trkpt lat="44.64423" lon="-1.24883">
        <ele>-1.79</ele>
        <time>2021-07-01T15:49:41Z</time>
      </trkpt>
      <trkpt lat="44.64449" lon="-1.24889">
        <ele>-1.79</ele>
        <time>2021-07-01T15:49:48Z</time>
      </trkpt>
      <trkpt lat="44.64448" lon="-1.24894">
        <ele>-1.79</ele>
        <time>2021-07-01T15:49:49Z</time>
      </trkpt>
      <trkpt lat="44.64448" lon="-1.24899">
        <ele>-1.79</ele>
        <time>2021-07-01T15:49:50Z</time>
      </trkpt>
      <trkpt lat="44.64442" lon="-1.24971">
        <ele>-3.71</ele>
        <time>2021-07-01T15:50:02Z</time>
      </trkpt>
    </trkseg>
  </trk>
</gpx>